Time;durP1;ratioP1;P1;durP2;ratioP2;P2;SDS_P1;SDS_P2;PMS_P1;PMS_P2;Temp;Humidity;BMP_temperature;BMP_pressure;BME280_temperature;BME280_humidity;BME280_pressure;Samples;Min_cycle;Max_cycle;Signal;HPM_P1;HPM_P2
2023/01/18 00:00:09;;;;;;;0.43;0.43;;;0.10;99.90;;;;;;5045878;28;20246;-80
2023/01/18 00:02:35;;;;;;;0.50;0.50;;;0.10;99.90;;;;;;5032122;28;20450;-80
2023/01/18 00:05:01;;;;;;;0.40;0.40;;;0.00;99.90;;;;;;5034501;28;20461;-80
2023/01/18 00:07:27;;;;;;;0.40;0.40;;;0.10;99.90;;;;;;5032830;28;20543;-79
2023/01/18 00:09:52;;;;;;;0.50;0.50;;;0.00;99.90;;;;;;5048255;28;21321;-79
2023/01/18 00:12:18;;;;;;;0.40;0.40;;;0.00;99.90;;;;;;5050370;28;20177;-79
2023/01/18 00:14:44;;;;;;;0.40;0.40;;;0.10;99.90;;;;;;5039016;28;20190;-80
2023/01/18 00:17:09;;;;;;;0.50;0.50;;;0.10;99.90;;;;;;5036085;28;20504;-79
2023/01/18 00:19:35;;;;;;;0.60;0.60;;;0.10;99.90;;;;;;5041954;28;20214;-80
2023/01/18 00:22:00;;;;;;;0.43;0.43;;;0.00;99.90;;;;;;5050166;28;20216;-80
2023/01/18 00:24:27;;;;;;;0.40;0.40;;;0.00;99.90;;;;;;5041343;28;20219;-80
2023/01/18 00:26:52;;;;;;;0.40;0.40;;;0.00;99.90;;;;;;5048898;28;20190;-80
2023/01/18 00:29:18;;;;;;;0.43;0.43;;;0.00;99.90;;;;;;5048279;28;20990;-80
2023/01/18 00:31:44;;;;;;;0.40;0.40;;;0.00;99.90;;;;;;5047177;28;20796;-80
2023/01/18 00:34:10;;;;;;;0.40;0.40;;;0.00;99.90;;;;;;5049146;28;20179;-80
2023/01/18 00:36:35;;;;;;;0.40;0.40;;;0.00;99.90;;;;;;5050136;28;20229;-80
2023/01/18 00:39:01;;;;;;;0.40;0.40;;;0.00;99.90;;;;;;5050094;28;20187;-80
2023/01/18 00:41:26;;;;;;;0.40;0.40;;;0.10;99.90;;;;;;5049775;28;20262;-80
2023/01/18 00:43:52;;;;;;;0.50;0.50;;;0.10;99.90;;;;;;5041283;28;20191;-80
2023/01/18 00:46:20;;;;;;;0.40;0.40;;;0.10;99.90;;;;;;5021987;28;20190;-80
2023/01/18 00:48:47;;;;;;;0.33;0.33;;;0.10;99.90;;;;;;5048934;28;20441;-80
2023/01/18 00:51:15;;;;;;;0.47;0.47;;;0.10;99.90;;;;;;5045519;28;20437;-80
2023/01/18 00:53:42;;;;;;;0.30;0.30;;;0.10;99.90;;;;;;5047653;28;20951;-80
2023/01/18 00:56:10;;;;;;;0.60;0.60;;;0.10;99.90;;;;;;5048856;28;20445;-80
2023/01/18 00:58:36;;;;;;;0.40;0.40;;;0.10;99.90;;;;;;5048035;28;20445;-80
2023/01/18 01:01:03;;;;;;;0.40;0.40;;;0.10;99.90;;;;;;5041054;28;20873;-80
2023/01/18 01:06:42;;;;;;;0.40;0.40;;;0.10;99.90;;;;;;5049964;28;20277;-80
2023/01/18 01:08:58;;;;;;;0.40;0.40;;;0.20;99.90;;;;;;5049335;28;20533;-80
2023/01/18 01:11:24;;;;;;;0.40;0.40;;;0.20;99.90;;;;;;5050195;28;20452;-80
2023/01/18 01:27:57;;;;;;;0.60;0.60;;;0.20;99.90;;;;;;5038479;28;20524;-80
2023/01/18 01:30:23;;;;;;;0.50;0.50;;;0.20;99.90;;;;;;5042895;28;20533;-80
2023/01/18 01:32:49;;;;;;;0.50;0.50;;;0.30;99.90;;;;;;5048649;28;20206;-80
2023/01/18 01:35:14;;;;;;;0.50;0.50;;;0.30;99.90;;;;;;5046507;28;20487;-80
2023/01/18 01:37:40;;;;;;;0.40;0.40;;;0.40;99.90;;;;;;5048078;28;20228;-80
2023/01/18 01:40:06;;;;;;;0.60;0.60;;;0.40;99.90;;;;;;5031044;28;20545;-80
2023/01/18 01:42:31;;;;;;;0.47;0.47;;;0.30;99.90;;;;;;5046319;28;20187;-80
2023/01/18 01:44:57;;;;;;;0.60;0.60;;;0.30;99.90;;;;;;5046746;28;20936;-80
2023/01/18 01:47:33;;;;;;;0.60;0.60;;;0.30;99.90;;;;;;5047951;28;20201;-79
2023/01/18 01:50:06;;;;;;;0.50;0.50;;;0.30;99.90;;;;;;5049485;28;20182;-80
2023/01/18 01:52:36;;;;;;;0.40;0.40;;;0.30;99.90;;;;;;5046988;28;20445;-80
2023/01/18 01:55:06;;;;;;;0.50;0.50;;;0.40;99.90;;;;;;5031613;28;20445;-80
2023/01/18 01:57:37;;;;;;;0.60;0.60;;;0.30;99.90;;;;;;5047178;28;20495;-79
2023/01/18 02:00:29;;;;;;;0.30;0.30;;;0.30;99.90;;;;;;5030604;28;20485;-80
2023/01/18 02:03:04;;;;;;;0.40;0.40;;;0.40;99.90;;;;;;5041357;28;20449;-80
2023/01/18 02:05:32;;;;;;;0.40;0.40;;;0.30;99.90;;;;;;5040375;28;20473;-80
2023/01/18 02:08:00;;;;;;;0.50;0.50;;;0.40;99.90;;;;;;5039712;28;20480;-80
2023/01/18 02:10:26;;;;;;;0.40;0.40;;;0.40;99.90;;;;;;5047150;28;20945;-80
2023/01/18 02:12:53;;;;;;;0.40;0.40;;;0.40;99.90;;;;;;5047841;28;20540;-80
2023/01/18 02:15:21;;;;;;;0.40;0.40;;;0.40;99.90;;;;;;5044145;28;20506;-79
2023/01/18 02:18:14;;;;;;;0.40;0.40;;;0.40;99.90;;;;;;5029471;28;20445;-80
2023/01/18 02:21:13;;;;;;;0.40;0.40;;;0.40;99.90;;;;;;5037322;28;21062;-80
2023/01/18 02:24:10;;;;;;;0.40;0.40;;;0.40;99.90;;;;;;5047568;28;20456;-80
2023/01/18 02:26:51;;;;;;;0.50;0.50;;;0.40;99.90;;;;;;5049417;28;20424;-80
2023/01/18 02:29:28;;;;;;;0.50;0.50;;;0.40;99.90;;;;;;5045359;28;20436;-80
2023/01/18 02:32:03;;;;;;;0.40;0.40;;;0.40;99.90;;;;;;5045397;28;20445;-80
2023/01/18 02:34:41;;;;;;;0.40;0.40;;;0.40;99.90;;;;;;5034373;28;20499;-80
2023/01/18 02:37:16;;;;;;;0.40;0.40;;;0.40;99.90;;;;;;5046738;28;20449;-80
2023/01/18 02:39:56;;;;;;;0.60;0.60;;;0.30;99.90;;;;;;5040869;28;20477;-80
2023/01/18 02:48:23;;;;;;;0.40;0.40;;;0.30;99.90;;;;;;5052439;28;20582;-80
2023/01/18 02:50:49;;;;;;;0.40;0.40;;;0.20;99.90;;;;;;5051441;28;20456;-80
2023/01/18 02:53:30;;;;;;;0.50;0.50;;;0.30;99.90;;;;;;5052392;28;20436;-80
2023/01/18 02:56:02;;;;;;;0.40;0.40;;;0.20;99.90;;;;;;5050425;28;20534;-80
2023/01/18 02:58:33;;;;;;;0.40;0.40;;;0.30;99.90;;;;;;5042319;28;20807;-80
2023/01/18 03:01:03;;;;;;;0.30;0.30;;;0.30;99.90;;;;;;5047706;28;20566;-80
2023/01/18 03:03:29;;;;;;;0.50;0.50;;;0.30;99.90;;;;;;5050979;28;20437;-80
2023/01/18 03:05:59;;;;;;;0.40;0.40;;;0.30;99.90;;;;;;5049548;28;20480;-80
2023/01/18 03:08:39;;;;;;;0.50;0.50;;;0.20;99.90;;;;;;5033900;28;20281;-79
2023/01/18 03:11:22;;;;;;;0.40;0.40;;;0.30;99.90;;;;;;5033792;28;20452;-80
2023/01/18 03:14:00;;;;;;;0.50;0.50;;;0.20;99.90;;;;;;5051182;28;20433;-80
2023/01/18 03:16:38;;;;;;;0.40;0.40;;;0.10;99.90;;;;;;5044675;28;20453;-79
2023/01/18 03:21:56;;;;;;;0.40;0.40;;;0.10;99.90;;;;;;5050779;28;20456;-80
2023/01/18 03:24:22;;;;;;;0.47;0.47;;;0.10;99.90;;;;;;5048605;28;20894;-80
2023/01/18 03:26:55;;;;;;;0.40;0.40;;;0.10;99.90;;;;;;5034330;28;20472;-80
2023/01/18 03:35:07;;;;;;;0.50;0.50;;;0.20;99.90;;;;;;5048295;28;21068;-80
2023/01/18 03:37:38;;;;;;;0.40;0.40;;;0.30;99.90;;;;;;5047447;28;20547;-80
2023/01/18 03:40:20;;;;;;;0.43;0.43;;;0.30;99.90;;;;;;5049888;28;20480;-79
2023/01/18 03:43:02;;;;;;;0.43;0.43;;;0.30;99.90;;;;;;5050128;28;20433;-80
2023/01/18 03:45:37;;;;;;;0.50;0.50;;;0.30;99.90;;;;;;5047830;28;20441;-80
2023/01/18 03:48:05;;;;;;;0.40;0.40;;;0.30;99.90;;;;;;5051499;28;20409;-80
2023/01/18 03:50:43;;;;;;;0.50;0.50;;;0.40;99.90;;;;;;5048050;28;20545;-80
2023/01/18 03:53:14;;;;;;;0.40;0.40;;;0.30;99.90;;;;;;5046518;28;20510;-80
2023/01/18 03:55:50;;;;;;;0.40;0.40;;;0.40;99.90;;;;;;5031974;28;20984;-80
2023/01/18 03:58:21;;;;;;;0.50;0.50;;;0.40;99.90;;;;;;5049756;28;20468;-80
2023/01/18 04:00:46;;;;;;;0.50;0.50;;;0.40;99.90;;;;;;5043549;28;20573;-80
2023/01/18 04:03:12;;;;;;;0.40;0.40;;;0.40;99.90;;;;;;5032731;28;20514;-80
2023/01/18 04:05:38;;;;;;;0.40;0.40;;;0.40;99.90;;;;;;5030596;28;20276;-80
2023/01/18 04:08:03;;;;;;;0.40;0.40;;;0.40;99.90;;;;;;5050664;28;20194;-80
2023/01/18 04:10:29;;;;;;;0.40;0.40;;;0.40;99.90;;;;;;5051350;28;20909;-80
2023/01/18 04:12:54;;;;;;;0.40;0.40;;;0.30;99.90;;;;;;5051168;28;20189;-80
2023/01/18 04:15:20;;;;;;;0.50;0.50;;;0.30;99.90;;;;;;5050534;28;20609;-80
2023/01/18 04:17:48;;;;;;;0.50;0.50;;;0.30;99.90;;;;;;5045556;28;20274;-79
2023/01/18 04:20:14;;;;;;;0.50;0.50;;;0.30;99.90;;;;;;5040869;28;20218;-79
2023/01/18 04:22:39;;;;;;;0.40;0.40;;;0.30;99.90;;;;;;5027474;28;20434;-80
2023/01/18 04:25:05;;;;;;;0.30;0.30;;;0.30;99.90;;;;;;5051106;28;20232;-80
2023/01/18 04:27:31;;;;;;;0.50;0.50;;;0.30;99.90;;;;;;5044123;28;20801;-80
2023/01/18 04:29:57;;;;;;;0.50;0.50;;;0.30;99.90;;;;;;5043935;28;20191;-79
2023/01/18 04:32:22;;;;;;;0.50;0.50;;;0.30;99.90;;;;;;5031874;28;20211;-80
2023/01/18 04:34:48;;;;;;;0.43;0.43;;;0.30;99.90;;;;;;5035991;28;20975;-80
2023/01/18 04:37:13;;;;;;;0.50;0.50;;;0.30;99.90;;;;;;5048726;28;20183;-80
2023/01/18 04:39:39;;;;;;;0.40;0.40;;;0.30;99.90;;;;;;5048074;28;20257;-80
2023/01/18 04:42:04;;;;;;;0.50;0.50;;;0.30;99.90;;;;;;5041784;28;20218;-80
2023/01/18 04:44:30;;;;;;;0.40;0.40;;;0.30;99.90;;;;;;5031056;28;20175;-80
2023/01/18 04:46:55;;;;;;;0.40;0.40;;;0.30;99.90;;;;;;5046036;28;20186;-79
2023/01/18 04:49:21;;;;;;;0.37;0.37;;;0.30;99.90;;;;;;5049470;28;20474;-79
2023/01/18 04:51:46;;;;;;;0.40;0.40;;;0.40;99.90;;;;;;5050336;28;20236;-80
2023/01/18 04:54:14;;;;;;;0.30;0.30;;;0.40;99.90;;;;;;5049121;28;20198;-80
2023/01/18 04:56:39;;;;;;;0.40;0.40;;;0.40;99.90;;;;;;5048695;28;20651;-80
2023/01/18 04:59:05;;;;;;;0.50;0.50;;;0.30;99.90;;;;;;5037477;28;20444;-79
2023/01/18 05:01:32;;;;;;;0.40;0.40;;;0.40;99.90;;;;;;5047724;28;20241;-80
2023/01/18 05:03:58;;;;;;;0.40;0.40;;;0.40;99.90;;;;;;5049164;28;20606;-80
2023/01/18 05:06:23;;;;;;;0.40;0.40;;;0.40;99.90;;;;;;5031396;28;20516;-80
2023/01/18 05:08:49;;;;;;;0.50;0.50;;;0.40;99.90;;;;;;5043155;28;20564;-79
2023/01/18 05:11:17;;;;;;;0.50;0.50;;;0.40;99.90;;;;;;5049994;28;20324;-79
2023/01/18 05:13:43;;;;;;;0.50;0.50;;;0.40;99.90;;;;;;5044241;28;20471;-80
2023/01/18 05:16:14;;;;;;;0.40;0.40;;;0.40;99.90;;;;;;5049537;28;20455;-79
2023/01/18 05:18:39;;;;;;;0.40;0.40;;;0.40;99.90;;;;;;5030229;28;20449;-80
2023/01/18 05:21:05;;;;;;;0.40;0.40;;;0.40;99.90;;;;;;5044523;28;20511;-79
2023/01/18 05:23:30;;;;;;;0.50;0.50;;;0.40;99.90;;;;;;5044557;28;20191;-80
2023/01/18 05:25:57;;;;;;;0.40;0.40;;;0.40;99.90;;;;;;5041535;28;20236;-79
2023/01/18 05:28:25;;;;;;;0.50;0.50;;;0.30;99.90;;;;;;5049716;28;20182;-80
2023/01/18 05:30:51;;;;;;;0.43;0.43;;;0.30;99.90;;;;;;5042869;28;20480;-80
2023/01/18 05:33:17;;;;;;;0.40;0.40;;;0.30;99.90;;;;;;5034565;28;20422;-80
2023/01/18 05:35:50;;;;;;;0.50;0.50;;;0.30;99.90;;;;;;5049282;28;20503;-80
2023/01/18 05:38:17;;;;;;;0.50;0.50;;;0.30;99.90;;;;;;5049659;28;20432;-81
2023/01/18 05:40:44;;;;;;;0.50;0.50;;;0.20;99.90;;;;;;5048305;28;20485;-80
2023/01/18 05:43:10;;;;;;;0.50;0.50;;;0.20;99.90;;;;;;5049236;28;20444;-80
2023/01/18 05:45:35;;;;;;;0.50;0.50;;;0.20;99.90;;;;;;5047955;28;20448;-80
2023/01/18 05:48:00;;;;;;;0.50;0.50;;;0.20;99.90;;;;;;5048704;28;20448;-80
2023/01/18 05:50:26;;;;;;;0.40;0.40;;;0.20;99.90;;;;;;5047472;28;20670;-79
2023/01/18 05:52:51;;;;;;;0.50;0.50;;;0.20;99.90;;;;;;5050011;28;20186;-79
2023/01/18 05:55:18;;;;;;;0.50;0.50;;;0.20;99.90;;;;;;5030921;28;20202;-79
2023/01/18 05:57:43;;;;;;;0.40;0.40;;;0.10;99.90;;;;;;5044776;28;20554;-80
2023/01/18 06:00:10;;;;;;;0.47;0.47;;;0.10;99.90;;;;;;5045941;28;20980;-80
2023/01/18 06:02:35;;;;;;;0.40;0.40;;;0.10;99.90;;;;;;5042140;28;20716;-80
2023/01/18 06:05:32;;;;;;;0.50;0.50;;;0.10;99.90;;;;;;5043723;28;21377;-79
2023/01/18 06:07:58;;;;;;;0.50;0.50;;;0.10;99.90;;;;;;5032159;28;20207;-80
2023/01/18 06:10:23;;;;;;;0.37;0.37;;;0.10;99.90;;;;;;5043461;28;20536;-80
2023/01/18 06:12:49;;;;;;;0.50;0.50;;;0.00;99.90;;;;;;5053829;28;20661;-80
2023/01/18 06:15:15;;;;;;;0.43;0.43;;;0.00;99.90;;;;;;5050028;28;20187;-80
2023/01/18 06:17:42;;;;;;;0.50;0.50;;;0.00;99.90;;;;;;5037598;28;20228;-80
2023/01/18 06:20:11;;;;;;;0.50;0.50;;;0.00;99.90;;;;;;5050851;28;20512;-80
2023/01/18 06:22:36;;;;;;;0.43;0.43;;;0.00;99.90;;;;;;5052092;28;20440;-80
2023/01/18 06:25:02;;;;;;;0.40;0.40;;;0.00;99.90;;;;;;5022728;28;20956;-79
2023/01/18 06:27:28;;;;;;;0.30;0.30;;;0.10;99.90;;;;;;5042869;28;20191;-80
2023/01/18 06:29:54;;;;;;;0.50;0.50;;;0.10;99.90;;;;;;5018898;28;20197;-79
2023/01/18 06:32:21;;;;;;;0.50;0.50;;;0.10;99.90;;;;;;5023827;28;20191;-80
2023/01/18 06:34:46;;;;;;;0.30;0.30;;;0.00;99.90;;;;;;5043995;28;20449;-79
2023/01/18 06:37:12;;;;;;;0.47;0.47;;;0.00;99.90;;;;;;5051746;28;20967;-80
2023/01/18 06:39:38;;;;;;;0.40;0.40;;;0.10;99.90;;;;;;5027094;28;20217;-80
2023/01/18 06:42:04;;;;;;;0.40;0.40;;;0.00;99.90;;;;;;5052877;28;20178;-79
2023/01/18 06:44:29;;;;;;;0.50;0.50;;;0.10;99.90;;;;;;5050346;28;20448;-80
2023/01/18 06:46:55;;;;;;;0.47;0.47;;;0.10;99.90;;;;;;5030298;28;20208;-79
2023/01/18 06:49:20;;;;;;;0.50;0.50;;;0.10;99.90;;;;;;5048966;28;20199;-79
2023/01/18 06:51:46;;;;;;;0.50;0.50;;;0.10;99.90;;;;;;5033388;28;20191;-80
2023/01/18 06:54:14;;;;;;;0.50;0.50;;;0.10;99.90;;;;;;5047145;28;20278;-79
2023/01/18 06:56:39;;;;;;;0.40;0.40;;;0.00;99.90;;;;;;5053124;28;20175;-79
2023/01/18 06:59:05;;;;;;;0.40;0.40;;;0.00;99.90;;;;;;5044064;28;20523;-79
2023/01/18 07:01:31;;;;;;;0.50;0.50;;;0.00;99.90;;;;;;5045192;28;20194;-79
2023/01/18 07:03:56;;;;;;;0.40;0.40;;;0.00;99.90;;;;;;5026578;28;20642;-79
2023/01/18 07:06:22;;;;;;;0.40;0.40;;;0.00;99.90;;;;;;5037474;28;20692;-79
2023/01/18 07:08:48;;;;;;;0.40;0.40;;;-0.10;99.90;;;;;;5036866;28;20473;-79
2023/01/18 07:11:14;;;;;;;0.50;0.50;;;-0.10;99.90;;;;;;5040471;28;20217;-80
2023/01/18 07:13:42;;;;;;;0.43;0.43;;;-0.10;99.90;;;;;;5037499;28;20477;-79
2023/01/18 07:16:12;;;;;;;0.40;0.40;;;-0.20;99.90;;;;;;5043771;28;20186;-79
2023/01/18 07:18:42;;;;;;;0.50;0.50;;;-0.20;99.90;;;;;;5028067;28;20487;-79
2023/01/18 07:21:09;;;;;;;0.50;0.50;;;-0.20;99.90;;;;;;5029231;28;20859;-79
2023/01/18 07:23:37;;;;;;;0.50;0.50;;;-0.30;99.90;;;;;;5046071;28;20484;-79
2023/01/18 07:26:03;;;;;;;0.40;0.40;;;-0.30;99.90;;;;;;5047565;28;20445;-80
2023/01/18 07:28:29;;;;;;;0.50;0.50;;;-0.20;99.90;;;;;;5044070;28;20964;-79
2023/01/18 07:30:55;;;;;;;0.50;0.50;;;-0.20;99.90;;;;;;5024406;28;20478;-80
2023/01/18 07:33:21;;;;;;;0.40;0.40;;;-0.20;99.90;;;;;;5040187;28;20437;-80
2023/01/18 07:35:46;;;;;;;0.60;0.60;;;-0.20;99.90;;;;;;5044227;28;20194;-79
2023/01/18 07:38:12;;;;;;;0.50;0.50;;;-0.20;99.90;;;;;;5049285;28;20198;-79
2023/01/18 07:40:37;;;;;;;0.47;0.47;;;-0.20;99.90;;;;;;5043809;28;20217;-79
2023/01/18 07:43:03;;;;;;;0.53;0.53;;;-0.30;99.90;;;;;;5039529;28;20663;-79
2023/01/18 07:45:29;;;;;;;0.50;0.50;;;-0.30;99.90;;;;;;5039282;28;20194;-79
2023/01/18 07:47:54;;;;;;;0.50;0.50;;;-0.30;99.90;;;;;;5038159;28;20220;-80
2023/01/18 07:50:21;;;;;;;0.50;0.50;;;-0.30;99.90;;;;;;5046561;28;20645;-80
2023/01/18 07:52:47;;;;;;;0.50;0.50;;;-0.30;99.90;;;;;;5045145;28;20217;-80
2023/01/18 07:55:12;;;;;;;0.50;0.50;;;-0.30;99.90;;;;;;5045935;28;20936;-80
2023/01/18 07:57:38;;;;;;;0.50;0.50;;;-0.40;99.90;;;;;;5048588;28;20194;-80
2023/01/18 08:00:06;;;;;;;0.50;0.50;;;-0.40;99.90;;;;;;5048131;28;20352;-80
2023/01/18 08:02:32;;;;;;;0.60;0.60;;;-0.50;99.90;;;;;;5032179;28;20194;-80
2023/01/18 08:04:58;;;;;;;0.47;0.47;;;-0.50;99.90;;;;;;5048162;28;20444;-79
2023/01/18 08:07:27;;;;;;;0.40;0.40;;;-0.60;99.90;;;;;;5044051;28;20460;-79
2023/01/18 08:09:53;;;;;;;0.50;0.50;;;-0.60;99.90;;;;;;5043321;28;20267;-79
2023/01/18 08:12:18;;;;;;;0.50;0.50;;;-0.60;99.90;;;;;;5043948;28;20787;-79
2023/01/18 08:14:44;;;;;;;0.50;0.50;;;-0.60;99.90;;;;;;5021113;28;20284;-79
2023/01/18 08:17:10;;;;;;;0.60;0.60;;;-0.60;99.90;;;;;;5040598;28;20183;-80
2023/01/18 08:19:36;;;;;;;0.50;0.50;;;-0.60;99.90;;;;;;5042958;28;20560;-79
2023/01/18 08:22:02;;;;;;;0.50;0.50;;;-0.70;99.90;;;;;;5050437;28;20179;-80
2023/01/18 08:24:27;;;;;;;0.60;0.60;;;-0.70;99.90;;;;;;5041640;28;20213;-80
2023/01/18 08:26:53;;;;;;;0.50;0.50;;;-0.60;99.90;;;;;;5045104;28;20536;-79
2023/01/18 08:29:18;;;;;;;0.50;0.50;;;-0.60;99.90;;;;;;5036865;28;20535;-79
2023/01/18 08:31:52;;;;;;;0.50;0.50;;;-0.60;99.90;;;;;;5040931;28;20186;-79
2023/01/18 08:34:18;;;;;;;0.50;0.50;;;-0.60;99.90;;;;;;5035610;28;20234;-81
2023/01/18 08:36:43;;;;;;;0.40;0.40;;;-0.50;99.90;;;;;;5050000;28;20908;-80
2023/01/18 08:39:08;;;;;;;0.43;0.43;;;-0.50;99.90;;;;;;5043045;28;20549;-79
2023/01/18 08:41:37;;;;;;;0.50;0.50;;;-0.40;99.90;;;;;;5045648;28;20563;-79
2023/01/18 08:44:02;;;;;;;0.40;0.40;;;-0.40;99.90;;;;;;5030373;28;20327;-80
2023/01/18 08:46:28;;;;;;;0.50;0.50;;;-0.40;99.90;;;;;;5041858;28;20556;-79
2023/01/18 08:48:56;;;;;;;0.50;0.50;;;-0.40;99.90;;;;;;5036750;28;20218;-79
2023/01/18 08:51:24;;;;;;;0.50;0.50;;;-0.30;99.90;;;;;;5031415;28;20445;-80
2023/01/18 08:53:51;;;;;;;0.47;0.47;;;-0.30;99.90;;;;;;5043210;28;20800;-80
2023/01/18 08:56:18;;;;;;;0.50;0.50;;;-0.30;99.90;;;;;;5025008;28;20460;-81
2023/01/18 08:58:43;;;;;;;0.50;0.50;;;-0.20;99.90;;;;;;5016730;28;20421;-81
2023/01/18 09:01:09;;;;;;;0.50;0.50;;;-0.20;99.90;;;;;;5034417;28;20486;-79
2023/01/18 09:03:36;;;;;;;0.40;0.40;;;-0.30;99.90;;;;;;5035547;28;20641;-78
2023/01/18 09:06:03;;;;;;;0.60;0.60;;;-0.10;99.90;;;;;;5038584;28;20245;-78
2023/01/18 09:08:28;;;;;;;0.50;0.50;;;-0.10;99.90;;;;;;5028862;28;20441;-78
2023/01/18 09:10:54;;;;;;;0.40;0.40;;;-0.10;99.90;;;;;;5043122;28;20522;-80
2023/01/18 09:13:20;;;;;;;0.40;0.40;;;0.00;99.90;;;;;;5037474;28;20193;-76
2023/01/18 09:15:45;;;;;;;0.40;0.40;;;0.20;99.90;;;;;;5036096;28;20272;-80
2023/01/18 09:18:12;;;;;;;0.40;0.40;;;0.10;99.90;;;;;;5022577;28;20867;-83
2023/01/18 09:20:38;;;;;;;0.50;0.50;;;0.20;99.90;;;;;;5043507;28;20630;-79
2023/01/18 09:23:08;;;;;;;0.50;0.50;;;0.30;99.90;;;;;;5043945;28;20433;-79
2023/01/18 09:25:35;;;;;;;0.40;0.40;;;0.30;99.90;;;;;;5045811;28;20186;-79
2023/01/18 09:28:02;;;;;;;0.40;0.40;;;0.20;99.90;;;;;;5038291;28;20442;-83
2023/01/18 09:30:27;;;;;;;0.50;0.50;;;0.30;99.90;;;;;;5035484;28;20453;-81
2023/01/18 09:32:53;;;;;;;0.50;0.50;;;0.30;99.90;;;;;;5047174;28;20495;-81
2023/01/18 09:35:19;;;;;;;0.50;0.50;;;0.40;99.90;;;;;;5044676;28;20190;-81
2023/01/18 09:37:45;;;;;;;0.50;0.50;;;0.60;99.90;;;;;;5042619;28;20278;-82
2023/01/18 09:40:19;;;;;;;0.40;0.40;;;0.70;99.90;;;;;;5028774;28;20237;-82
2023/01/18 09:42:46;;;;;;;0.50;0.50;;;0.80;99.90;;;;;;5042587;28;20444;-83
2023/01/18 09:45:28;;;;;;;0.50;0.50;;;0.90;99.90;;;;;;5045320;28;20510;-82
2023/01/18 09:48:03;;;;;;;0.50;0.50;;;1.00;99.90;;;;;;5048467;28;20437;-81
2023/01/18 09:50:30;;;;;;;0.40;0.40;;;1.00;99.90;;;;;;5053953;28;20518;-82
2023/01/18 09:53:12;;;;;;;0.33;0.33;;;1.30;99.90;;;;;;5055021;28;20453;-82
2023/01/18 09:55:51;;;;;;;0.50;0.50;;;1.40;99.90;;;;;;5054616;28;20917;-82
2023/01/18 09:58:40;;;;;;;0.50;0.50;;;1.90;99.90;;;;;;5054263;28;20440;-82
2023/01/18 10:01:11;;;;;;;0.40;0.40;;;1.90;99.90;;;;;;5053668;28;20516;-82
2023/01/18 10:04:09;;;;;;;0.50;0.50;;;1.80;99.90;;;;;;5047026;28;20905;-83
2023/01/18 10:06:52;;;;;;;0.40;0.40;;;1.70;99.90;;;;;;5041292;28;20491;-82
2023/01/18 10:09:19;;;;;;;0.40;0.40;;;1.90;99.90;;;;;;5048494;28;20440;-82
2023/01/18 10:12:12;;;;;;;0.40;0.40;;;1.90;99.90;;;;;;5056458;28;20420;-82
2023/01/18 10:14:43;;;;;;;0.37;0.37;;;1.90;99.90;;;;;;5052267;28;20432;-85
2023/01/18 10:17:34;;;;;;;0.40;0.40;;;2.10;99.90;;;;;;5036373;28;20444;-86
2023/01/18 10:20:11;;;;;;;0.40;0.40;;;2.00;99.90;;;;;;5034910;28;20488;-85
2023/01/18 10:22:57;;;;;;;0.40;0.40;;;1.80;99.90;;;;;;5054884;28;20535;-84
2023/01/18 10:25:51;;;;;;;0.50;0.50;;;1.90;99.90;;;;;;5048082;28;20444;-85
2023/01/18 10:28:25;;;;;;;0.30;0.30;;;2.00;99.90;;;;;;5044896;28;20452;-85
2023/01/18 10:31:02;;;;;;;0.40;0.40;;;1.80;99.90;;;;;;5049456;28;20449;-84
2023/01/18 10:33:32;;;;;;;0.50;0.50;;;2.10;99.90;;;;;;5053180;28;20963;-85
2023/01/18 10:36:05;;;;;;;0.40;0.40;;;2.10;99.90;;;;;;5049077;28;20956;-85
2023/01/18 10:38:30;;;;;;;0.37;0.37;;;2.30;99.90;;;;;;5048386;28;20484;-85
2023/01/18 10:40:59;;;;;;;0.40;0.40;;;2.90;99.90;;;;;;5048087;28;20524;-85
2023/01/18 10:43:27;;;;;;;0.40;0.40;;;3.70;99.90;;;;;;5050451;28;20178;-87
2023/01/18 10:45:54;;;;;;;0.40;0.40;;;3.90;99.90;;;;;;5048523;28;20511;-85
2023/01/18 10:48:19;;;;;;;0.40;0.40;;;4.00;99.90;;;;;;5035822;28;20428;-84
2023/01/18 10:50:47;;;;;;;0.30;0.30;;;4.20;99.90;;;;;;5052985;28;20937;-85
2023/01/18 10:53:26;;;;;;;0.40;0.40;;;4.10;99.90;;;;;;5052059;28;20190;-85
2023/01/18 10:55:53;;;;;;;0.40;0.40;;;3.90;99.90;;;;;;5029677;28;20468;-85
2023/01/18 10:58:29;;;;;;;0.40;0.40;;;4.10;99.90;;;;;;5032467;28;20437;-84
2023/01/18 11:00:57;;;;;;;0.40;0.40;;;4.50;99.90;;;;;;5046669;28;20516;-85
2023/01/18 11:03:25;;;;;;;0.40;0.40;;;4.70;99.90;;;;;;5045159;28;20446;-84
2023/01/18 11:05:51;;;;;;;0.30;0.30;;;5.40;99.90;;;;;;5050018;28;20515;-85
2023/01/18 11:08:21;;;;;;;0.40;0.40;;;5.50;99.90;;;;;;5036706;28;20679;-86
2023/01/18 11:10:58;;;;;;;0.40;0.40;;;4.70;99.90;;;;;;5047482;28;20457;-85
2023/01/18 11:13:29;;;;;;;0.30;0.30;;;4.50;99.90;;;;;;5042902;28;20433;-86
2023/01/18 11:16:12;;;;;;;0.30;0.30;;;4.90;99.90;;;;;;5044092;28;20848;-85
2023/01/18 11:19:16;;;;;;;0.30;0.30;;;5.70;99.90;;;;;;5028661;28;20442;-86
2023/01/18 11:21:48;;;;;;;0.20;0.20;;;6.40;99.90;;;;;;5044620;28;21202;-82
2023/01/18 11:24:27;;;;;;;0.30;0.30;;;6.00;99.90;;;;;;5026364;28;20437;-84
2023/01/18 11:26:59;;;;;;;0.30;0.30;;;6.30;99.90;;;;;;5025405;28;20460;-83
2023/01/18 11:29:37;;;;;;;0.30;0.30;;;6.60;99.90;;;;;;5041297;28;20446;-82
2023/01/18 11:32:05;;;;;;;0.30;0.30;;;7.10;99.90;;;;;;5029330;28;20457;-82
2023/01/18 11:34:41;;;;;;;0.30;0.30;;;7.80;99.90;;;;;;5047954;28;20429;-82
2023/01/18 11:37:44;;;;;;;0.20;0.20;;;8.00;99.90;;;;;;5044258;28;20563;-82
2023/01/18 11:40:19;;;;;;;0.30;0.30;;;7.30;99.90;;;;;;4986009;28;20483;-81
2023/01/18 11:42:47;;;;;;;0.30;0.30;;;6.80;99.90;;;;;;5033312;28;20456;-81
2023/01/18 11:45:39;;;;;;;0.30;0.30;;;7.20;99.90;;;;;;5041494;28;20856;-81
2023/01/18 11:48:36;;;;;;;0.20;0.20;;;7.70;99.90;;;;;;5030262;28;20449;-83
2023/01/18 11:51:21;;;;;;;0.30;0.30;;;7.90;99.90;;;;;;5062611;28;20433;-81
2023/01/18 11:54:11;;;;;;;0.20;0.20;;;7.90;99.90;;;;;;5036389;28;20435;-82
2023/01/18 11:56:47;;;;;;;0.20;0.20;;;7.50;99.90;;;;;;5023810;28;20778;-82
2023/01/18 11:59:26;;;;;;;0.30;0.30;;;7.40;99.90;;;;;;5042198;28;20560;-82
2023/01/18 12:02:04;;;;;;;0.20;0.20;;;8.20;99.90;;;;;;5030398;28;20466;-83
2023/01/18 12:04:44;;;;;;;0.20;0.20;;;8.80;99.90;;;;;;5045050;28;20927;-83
2023/01/18 12:07:28;;;;;;;0.20;0.20;;;8.60;99.90;;;;;;5044066;28;20483;-83
2023/01/18 12:09:59;;;;;;;0.20;0.20;;;8.00;99.90;;;;;;5047266;28;20885;-82
2023/01/18 12:12:28;;;;;;;0.20;0.20;;;8.30;99.90;;;;;;5040471;28;20457;-82
2023/01/18 12:15:12;;;;;;;0.20;0.20;;;8.50;99.90;;;;;;5032134;28;20449;-82
2023/01/18 12:18:06;;;;;;;0.20;0.20;;;8.80;99.90;;;;;;5045210;28;20921;-82
2023/01/18 12:20:44;;;;;;;0.20;0.20;;;9.60;99.90;;;;;;5045190;28;20579;-81
2023/01/18 12:23:37;;;;;;;0.20;0.20;;;9.40;99.90;;;;;;5027650;28;20447;-81
2023/01/18 12:26:21;;;;;;;0.20;0.20;;;9.80;99.90;;;;;;5029740;28;20519;-81
2023/01/18 12:28:49;;;;;;;0.20;0.20;;;10.20;99.90;;;;;;5050216;28;20428;-81
2023/01/18 12:31:36;;;;;;;0.20;0.20;;;9.80;99.90;;;;;;5045495;28;20468;-80
2023/01/18 12:34:08;;;;;;;0.20;0.20;;;9.80;99.90;;;;;;5027949;28;20450;-81
2023/01/18 12:36:45;;;;;;;0.20;0.20;;;10.00;99.90;;;;;;5050418;28;20441;-81
2023/01/18 12:39:34;;;;;;;0.10;0.10;;;10.00;99.90;;;;;;5051720;28;21336;-81
2023/01/18 12:42:08;;;;;;;0.20;0.20;;;10.30;99.90;;;;;;5030027;28;20457;-80
2023/01/18 12:44:52;;;;;;;0.17;0.17;;;10.00;99.90;;;;;;5032987;28;20827;-80
2023/01/18 12:47:39;;;;;;;0.10;0.10;;;11.20;99.90;;;;;;5045228;28;20437;-80
2023/01/18 12:50:27;;;;;;;0.10;0.10;;;10.40;99.90;;;;;;5041388;28;21015;-81
2023/01/18 12:52:59;;;;;;;0.10;0.10;;;10.50;99.90;;;;;;5046215;28;20441;-83
2023/01/18 12:55:30;;;;;;;0.10;0.10;;;11.00;99.90;;;;;;5030874;28;20468;-81
2023/01/18 12:57:58;;;;;;;0.20;0.20;;;10.20;99.90;;;;;;5025226;28;20426;-82
2023/01/18 13:00:37;;;;;;;0.20;0.20;;;11.10;99.90;;;;;;5037523;28;20576;-80
2023/01/18 13:03:12;;;;;;;0.20;0.20;;;11.40;99.90;;;;;;5018900;28;20450;-81
2023/01/18 13:05:58;;;;;;;0.10;0.10;;;11.20;99.90;;;;;;5050274;28;20468;-84
2023/01/18 13:08:31;;;;;;;0.20;0.20;;;10.80;99.90;;;;;;5023493;28;20484;-82
2023/01/18 13:11:05;;;;;;;0.20;0.20;;;10.80;99.90;;;;;;5043036;28;20999;-78
2023/01/18 13:13:31;;;;;;;0.20;0.20;;;10.70;99.90;;;;;;5048505;28;20463;-80
2023/01/18 13:16:18;;;;;;;0.10;0.10;;;10.10;99.90;;;;;;5044841;28;20441;-81
2023/01/18 13:19:09;;;;;;;0.10;0.10;;;10.40;99.90;;;;;;5038816;28;20499;-83
2023/01/18 13:21:44;;;;;;;0.10;0.10;;;10.90;99.90;;;;;;5027463;28;20485;-83
2023/01/18 13:24:32;;;;;;;0.10;0.10;;;11.10;99.90;;;;;;5045626;28;20444;-80
2023/01/18 13:27:12;;;;;;;0.10;0.10;;;11.40;99.90;;;;;;5044987;28;20457;-78
2023/01/18 13:29:39;;;;;;;0.10;0.10;;;10.30;99.90;;;;;;5048009;28;20975;-81
2023/01/18 13:32:20;;;;;;;0.10;0.10;;;;;;;;;;5039503;28;20448;-82
2023/01/18 13:34:58;;;;;;;0.10;0.10;;;10.90;99.90;;;;;;5048838;28;20445;-80
2023/01/18 13:37:51;;;;;;;0.10;0.10;;;10.70;99.90;;;;;;5047295;28;20956;-81
2023/01/18 13:40:36;;;;;;;0.10;0.10;;;11.20;99.90;;;;;;5025085;28;20893;-81
2023/01/18 13:43:04;;;;;;;0.10;0.10;;;12.40;99.90;;;;;;5040399;28;20449;-81
2023/01/18 13:45:30;;;;;;;0.10;0.10;;;11.40;99.90;;;;;;5046237;28;20453;-80